, AK

(GMT )
Denali Park

Weather History for PAIN - May, 2013

Change the Weather History Date:

Thursday, May 23, 2013

  Actual Average Record
Temperature  
Mean Temperature 46 °F -  
Max Temperature 55 °F 56 °F 78 °F (2015)
Min Temperature 37 °F 30 °F 23 °F (1973)
Degree Days  
Heating Degree Days 19    
Moisture  
Dew Point 33 °F    
Average Humidity 60    
Maximum Humidity 81    
Minimum Humidity 44    
Precipitation  
Precipitation 0.00 in - - ()
Sea Level Pressure  
Sea Level Pressure 30.10 in    
Wind  
Wind Speed 1 mph (North)    
Max Wind Speed 8 mph    
Max Gust Speed -    
Visibility 10 miles    
Events      
Averages and records for this station are not official NWS values.
T = Trace of Precipitation, MM = Missing Value Source: NWS Daily Summary

Daily Weather History Graph

Daily Weather History Graph

Search for Another Location

Airport or City:

Trip Planner

Search our weather history database for the weather conditions in past years. The results will help you decide how hot, cold, wet, or windy it might be!

Date:

Astronomy

May. 23, 2013 Rise Set
Actual Time 4:20 AM AKDT 11:27 PM AKDT
Civil Twilight 2:24 AM AKDT 1:20 AM AKDT
Nautical Twilight Sun does not set Sun does not set
Astronomical Twilight Sun does not set Sun does not set
Moon 9:39 PM AKDT (5/23) 4:01 AM AKDT (5/23)
Length of Visible Light 22h 55m
Length of Day
19h 06m
Waxing Gibbous, 97% of the Moon is Illuminated
May 23
Waxing Gibbous
May 24
Full
May 31
Last Quarter
Jun 8
New
Jun 16
First Quarter

Hourly Weather History & Observations

Time (AKDT) Temp. Dew Point Humidity Pressure Visibility Wind Dir Wind Speed Gust Speed Precip Events Conditions
12:16 AM 42.8 °F 28.4 °F 57% 30.07 in 10.0 mi Calm Calm - N/A   Overcast
12:36 AM 42.8 °F 28.4 °F 57% 30.07 in 10.0 mi Calm Calm - N/A   Overcast
12:56 AM 41.0 °F 28.4 °F 61% 30.07 in 10.0 mi Calm Calm - N/A   Overcast
1:16 AM 41.0 °F 28.4 °F 61% 30.07 in 10.0 mi Calm Calm - N/A   Overcast
1:36 AM 39.2 °F 28.4 °F 65% 30.08 in 10.0 mi Calm Calm - N/A   Overcast
1:56 AM 39.2 °F 28.4 °F 65% 30.08 in 10.0 mi Calm Calm - N/A   Overcast
2:16 AM 39.2 °F 30.2 °F 70% 30.08 in 10.0 mi Calm Calm - N/A   Overcast
2:36 AM 37.4 °F 28.4 °F 70% 30.08 in 10.0 mi Calm Calm - N/A   Overcast
2:56 AM 37.4 °F 28.4 °F 70% 30.09 in 10.0 mi Calm Calm - N/A   Overcast
3:16 AM 37.4 °F 28.4 °F 70% 30.09 in 10.0 mi Calm Calm - N/A   Overcast
3:36 AM 37.4 °F 30.2 °F 75% 30.09 in 10.0 mi Calm Calm - N/A   Overcast
3:56 AM 37.4 °F 30.2 °F 75% 30.09 in 10.0 mi Calm Calm - N/A   Overcast
4:16 AM 37.4 °F 30.2 °F 75% 30.09 in 10.0 mi Calm Calm - N/A   Overcast
4:36 AM 37.4 °F 30.2 °F 75% 30.09 in 10.0 mi Calm Calm - N/A   Overcast
4:56 AM 37.4 °F 30.2 °F 75% 30.10 in 10.0 mi Calm Calm - N/A   Overcast
5:16 AM 37.4 °F 30.2 °F 75% 30.10 in 10.0 mi Calm Calm - N/A   Overcast
5:36 AM 37.4 °F 30.2 °F 75% 30.10 in 10.0 mi Calm Calm - N/A   Overcast
5:56 AM 37.4 °F 30.2 °F 75% 30.10 in 10.0 mi Calm Calm - N/A   Overcast
6:16 AM 37.4 °F 30.2 °F 75% 30.10 in 10.0 mi Calm Calm - N/A   Overcast
6:36 AM 37.4 °F 30.2 °F 75% 30.10 in 10.0 mi Calm Calm - N/A   Overcast
6:56 AM 37.4 °F 30.2 °F 75% 30.10 in 10.0 mi Calm Calm - N/A   Overcast
7:16 AM 37.4 °F 30.2 °F 75% 30.10 in 10.0 mi Calm Calm - N/A   Overcast
7:36 AM 37.4 °F 30.2 °F 75% 30.10 in 10.0 mi Calm Calm - N/A   Overcast
7:56 AM 39.2 °F 30.2 °F 70% 30.11 in 10.0 mi Calm Calm - N/A   Overcast
8:16 AM 41.0 °F 30.2 °F 65% 30.11 in 10.0 mi Calm Calm - N/A   Overcast
8:36 AM 41.0 °F 30.2 °F 65% 30.11 in 10.0 mi Calm Calm - N/A   Overcast
8:56 AM 42.8 °F 30.2 °F 61% 30.11 in 10.0 mi Calm Calm - N/A   Overcast
9:16 AM 42.8 °F 30.2 °F 61% 30.11 in 10.0 mi Calm Calm - N/A   Overcast
9:36 AM 44.6 °F 30.2 °F 57% 30.11 in 10.0 mi Calm Calm - N/A   Overcast
9:56 AM 44.6 °F 30.2 °F 57% 30.11 in 10.0 mi Calm Calm - N/A   Overcast
10:16 AM 44.6 °F 28.4 °F 53% 30.11 in 10.0 mi Calm Calm - N/A   Overcast
10:36 AM 46.4 °F 28.4 °F 50% 30.10 in 10.0 mi Calm Calm - N/A   Overcast
10:56 AM 46.4 °F 30.2 °F 53% 30.10 in 10.0 mi Calm Calm - N/A   Overcast
11:16 AM 48.2 °F 30.2 °F 50% 30.10 in 10.0 mi Calm Calm - N/A   Mostly Cloudy
11:36 AM 48.2 °F 30.2 °F 50% 30.10 in 10.0 mi Calm Calm - N/A   Overcast
11:56 AM 48.2 °F 32.0 °F 54% 30.10 in 10.0 mi Calm Calm - N/A   Overcast
12:16 PM 50.0 °F 33.8 °F 54% 30.10 in 10.0 mi NNE 3.5 mph - N/A   Mostly Cloudy
12:36 PM 51.8 °F 33.8 °F 50% 30.09 in 10.0 mi NNE 5.8 mph - N/A   Mostly Cloudy
12:56 PM 51.8 °F 35.6 °F 54% 30.09 in 10.0 mi NNE 8.1 mph - N/A   Overcast
1:16 PM 51.8 °F 35.6 °F 54% 30.09 in 10.0 mi NNE 5.8 mph - N/A   Overcast
1:36 PM 51.8 °F 35.6 °F 54% 30.10 in 10.0 mi NNW 4.6 mph - N/A   Overcast
1:56 PM 51.8 °F 35.6 °F 54% 30.09 in 10.0 mi North 8.1 mph - N/A   Overcast
2:16 PM 51.8 °F 35.6 °F 54% 30.09 in 10.0 mi NNE 6.9 mph - N/A   Overcast
2:36 PM 51.8 °F 35.6 °F 54% 30.09 in 10.0 mi NNE 6.9 mph - N/A   Overcast
2:56 PM 53.6 °F 35.6 °F 51% 30.09 in 10.0 mi North 5.8 mph - N/A   Overcast
3:16 PM 53.6 °F 35.6 °F 51% 30.09 in 10.0 mi NNE 5.8 mph - N/A   Overcast
3:36 PM 53.6 °F 35.6 °F 51% 30.09 in 10.0 mi North 4.6 mph - N/A   Overcast
3:56 PM 53.6 °F 35.6 °F 51% 30.09 in 10.0 mi North 4.6 mph - N/A   Overcast
4:16 PM 53.6 °F 35.6 °F 51% 30.08 in 10.0 mi NNE 4.6 mph - N/A   Overcast
4:36 PM 53.6 °F 35.6 °F 51% 30.09 in 10.0 mi North 6.9 mph - N/A   Overcast
4:56 PM 53.6 °F 35.6 °F 51% 30.09 in 10.0 mi North 3.5 mph - N/A   Overcast
5:16 PM 53.6 °F 33.8 °F 47% 30.09 in 10.0 mi Calm Calm - N/A   Overcast
5:36 PM 53.6 °F 33.8 °F 47% 30.09 in 10.0 mi NNE 4.6 mph - N/A   Overcast
5:56 PM 55.4 °F 33.8 °F 44% 30.09 in 10.0 mi Calm Calm - N/A   Mostly Cloudy
6:16 PM 55.4 °F 33.8 °F 44% 30.09 in 10.0 mi North 4.6 mph - N/A   Overcast
6:36 PM 53.6 °F 35.6 °F 51% 30.09 in 10.0 mi NNE 4.6 mph - N/A   Overcast
6:56 PM 53.6 °F 35.6 °F 51% 30.09 in 10.0 mi Calm Calm - N/A   Overcast
7:16 PM 53.6 °F 35.6 °F 51% 30.09 in 10.0 mi Calm Calm - N/A   Overcast
7:36 PM 53.6 °F 35.6 °F 51% 30.09 in 10.0 mi NNW 4.6 mph - N/A   Overcast
7:56 PM 53.6 °F 35.6 °F 51% 30.09 in 10.0 mi Calm Calm - N/A   Overcast
8:16 PM 53.6 °F 35.6 °F 51% 30.09 in 10.0 mi Calm Calm - N/A   Overcast
8:36 PM 51.8 °F 35.6 °F 54% 30.09 in 10.0 mi West 4.6 mph - N/A   Overcast
8:56 PM 51.8 °F 35.6 °F 54% 30.10 in 10.0 mi West 5.8 mph - N/A   Overcast
9:16 PM 51.8 °F 35.6 °F 54% 30.10 in 10.0 mi North 4.6 mph - N/A   Overcast
9:36 PM 51.8 °F 35.6 °F 54% 30.10 in 10.0 mi NNW 3.5 mph - N/A   Overcast
9:56 PM 51.8 °F 37.4 °F 58% 30.10 in 10.0 mi North 3.5 mph - N/A   Overcast
10:16 PM 51.8 °F 37.4 °F 58% 30.11 in 10.0 mi North 3.5 mph - N/A   Overcast
10:36 PM 48.2 °F 39.2 °F 71% 30.11 in 10.0 mi North 3.5 mph - N/A   Overcast
10:56 PM 46.4 °F 41.0 °F 81% 30.11 in 10.0 mi Calm Calm - N/A   Overcast
11:16 PM 48.2 °F 39.2 °F 71% 30.12 in 10.0 mi Calm Calm - N/A   Overcast
11:36 PM 46.4 °F 39.2 °F 76% 30.12 in 10.0 mi Calm Calm - N/A   Overcast
11:56 PM 46.4 °F 39.2 °F 76% 30.12 in 10.0 mi Calm Calm - N/A   Overcast